Hertel, Wisconsin
Current Conditions -  °F | °C
As of 8:15 AM on Saturday 20 Dec 2014 (Local Time) from KRZN Reporting Station
Overcast Overcast  
Wind Chill: 22°   Ceiling: 1300
Heat Index: 28°   Visibility: 7mi
Dew Point: 24°   Wind: 6mph
Humidity: 85%   Direction: 160°SSE
Pressure: 30.16"   Gusts: NA
Location:  45.81°N, 92.18°W
Report Text: KRZN 201415Z AUTO 16005KT 7SM OVC013 M02/M04 A3016 RMK AO2 T10201042
Loading
Personal Weather Stations






























Interactive Weather Map New forecast layout! Learn more

10-Day Weather Forecast

Advertisements
Track Severe Weather on mobile